Time;durP1;ratioP1;P1;durP2;ratioP2;P2;SDS_P1;SDS_P2;PMS_P1;PMS_P2;Temp;Humidity;BMP_temperature;BMP_pressure;BME280_temperature;BME280_humidity;BME280_pressure;Samples;Min_cycle;Max_cycle;Signal;HPM_P1;HPM_P2
2021/03/18 00:01:41;;;;;;;9.47;8.53;;;;;;;-1.14;93.73;98662.91;4999370;28;20214;-69
2021/03/18 00:04:10;;;;;;;8.30;7.50;;;;;;;-1.25;94.50;98663.44;5004913;28;20225;-68
2021/03/18 00:06:38;;;;;;;7.97;7.20;;;;;;;-1.37;94.90;98653.59;4993063;28;20209;-69
2021/03/18 00:09:05;;;;;;;9.03;8.07;;;;;;;-1.43;97.02;98661.69;4989835;28;20407;-69
2021/03/18 00:11:32;;;;;;;9.53;7.97;;;;;;;-1.43;96.92;98648.69;5002342;28;20204;-68
2021/03/18 00:14:00;;;;;;;8.63;7.83;;;;;;;-1.65;97.90;98652.31;4991999;28;20240;-66
2021/03/18 00:16:27;;;;;;;9.43;8.53;;;;;;;-1.65;98.40;98657.50;5000553;28;20204;-69
2021/03/18 00:18:54;;;;;;;8.60;7.77;;;;;;;-1.63;98.93;98650.47;4998849;28;20205;-69
2021/03/18 00:21:23;;;;;;;13.20;8.53;;;;;;;-1.67;98.38;98647.16;5004357;28;20204;-69
2021/03/18 00:23:51;;;;;;;8.53;7.67;;;;;;;-1.84;99.16;98641.91;4998957;28;20712;-69
2021/03/18 00:26:19;;;;;;;8.83;7.93;;;;;;;-1.79;98.99;98625.19;5001950;28;20445;-69
2021/03/18 00:28:46;;;;;;;8.80;8.00;;;;;;;-2.00;100.00;98636.56;4996005;28;20209;-69
2021/03/18 00:31:14;;;;;;;10.80;8.27;;;;;;;-2.19;100.00;98638.22;5003962;28;20217;-70
2021/03/18 00:33:41;;;;;;;11.57;8.17;;;;;;;-2.19;100.00;98635.63;4991759;28;20230;-70
2021/03/18 00:36:08;;;;;;;10.03;8.97;;;;;;;-2.36;100.00;98633.78;5004213;28;20532;-69
2021/03/18 00:38:35;;;;;;;11.20;10.03;;;;;;;-2.50;100.00;98620.53;4992674;28;20447;-69
2021/03/18 00:41:04;;;;;;;11.57;8.93;;;;;;;-2.64;100.00;98634.94;4985595;28;20217;-69
2021/03/18 00:43:32;;;;;;;9.73;8.67;;;;;;;-2.69;100.00;98626.53;4984546;28;20492;-69
2021/03/18 00:45:59;;;;;;;11.13;9.33;;;;;;;-2.69;100.00;98628.25;4984740;28;20221;-69
2021/03/18 00:48:27;;;;;;;19.77;16.07;;;;;;;-2.74;100.00;98625.88;4990065;28;20201;-70
2021/03/18 00:50:56;;;;;;;18.27;15.73;;;;;;;-2.59;100.00;98626.97;4997144;28;20232;-69
2021/03/18 00:53:25;;;;;;;11.33;10.23;;;;;;;-2.67;100.00;98626.44;4988048;28;20239;-68
2021/03/18 00:55:52;;;;;;;11.53;9.23;;;;;;;-2.58;100.00;98633.00;4984131;28;20213;-69
2021/03/18 00:58:20;;;;;;;11.07;9.53;;;;;;;-2.47;100.00;98633.38;4988366;28;20205;-69
2021/03/18 01:00:49;;;;;;;10.10;8.13;;;;;;;-2.43;100.00;98637.56;4986744;28;20194;-68
2021/03/18 01:03:17;;;;;;;10.43;9.40;;;;;;;-2.40;100.00;98634.81;4987461;28;20222;-68
2021/03/18 01:05:47;;;;;;;11.20;9.53;;;;;;;-2.43;100.00;98640.16;4984774;28;20296;-69
2021/03/18 01:08:15;;;;;;;9.07;8.17;;;;;;;-2.49;100.00;98633.44;4992636;28;20201;-70
2021/03/18 01:10:44;;;;;;;10.57;9.13;;;;;;;-2.52;100.00;98636.19;4999758;28;20209;-68
2021/03/18 01:13:17;;;;;;;9.63;8.73;;;;;;;-2.56;100.00;98636.38;4998878;28;20748;-69
2021/03/18 01:15:44;;;;;;;11.07;9.60;;;;;;;-2.66;100.00;98628.97;4992618;28;20205;-69
2021/03/18 01:18:11;;;;;;;12.30;9.57;;;;;;;-2.77;100.00;98632.03;5004648;28;20244;-69
2021/03/18 01:20:39;;;;;;;13.93;9.27;;;;;;;-2.86;100.00;98631.56;5000947;28;20223;-68
2021/03/18 01:23:07;;;;;;;10.53;9.40;;;;;;;-2.93;100.00;98624.03;5009373;28;20231;-69
2021/03/18 01:25:34;;;;;;;11.83;9.80;;;;;;;-2.99;100.00;98615.69;5001297;28;20288;-69
2021/03/18 01:28:01;;;;;;;11.77;10.63;;;;;;;-3.06;100.00;98618.50;4998729;28;20206;-69
2021/03/18 01:30:28;;;;;;;13.73;9.97;;;;;;;-3.07;100.00;98621.16;5004169;28;20204;-69
2021/03/18 01:32:55;;;;;;;10.40;9.40;;;;;;;-3.14;100.00;98615.38;4999093;28;20209;-69
2021/03/18 01:35:23;;;;;;;11.30;10.10;;;;;;;-3.23;100.00;98623.53;4999696;28;20732;-69
2021/03/18 01:37:52;;;;;;;11.70;9.23;;;;;;;-3.28;100.00;98622.88;5000778;28;20202;-69
2021/03/18 01:40:23;;;;;;;10.80;9.70;;;;;;;-3.33;100.00;98620.47;5003981;28;20225;-69
2021/03/18 01:42:50;;;;;;;10.53;9.53;;;;;;;-3.37;100.00;98619.75;5001806;28;20764;-69
2021/03/18 01:45:17;;;;;;;11.40;9.73;;;;;;;-3.33;100.00;98625.66;4997163;28;20212;-69
2021/03/18 01:47:46;;;;;;;15.57;11.37;;;;;;;-3.35;100.00;98630.06;5000133;28;20632;-70
2021/03/18 01:50:15;;;;;;;11.50;10.40;;;;;;;-3.39;100.00;98631.09;4988736;28;20235;-68
2021/03/18 01:52:43;;;;;;;10.27;9.37;;;;;;;-3.32;100.00;98631.69;5001776;28;20208;-69
2021/03/18 01:55:14;;;;;;;10.97;9.73;;;;;;;-3.34;100.00;98636.94;4999028;28;20226;-69
2021/03/18 01:57:42;;;;;;;10.87;9.60;;;;;;;-3.29;100.00;98634.16;4993339;28;20212;-69
2021/03/18 02:00:11;;;;;;;11.67;10.43;;;;;;;-3.10;100.00;98637.69;5000926;28;20220;-69
2021/03/18 02:02:54;;;;;;;13.83;10.30;;;;;;;-2.93;100.00;98641.34;4998127;28;20352;-69
2021/03/18 02:05:22;;;;;;;12.50;9.90;;;;;;;-2.96;100.00;98642.31;5006316;28;20336;-69
2021/03/18 02:07:52;;;;;;;14.73;10.30;;;;;;;-2.96;100.00;98638.91;4996169;28;20201;-70
2021/03/18 02:10:20;;;;;;;12.63;9.73;;;;;;;-3.06;100.00;98634.06;5002778;28;20636;-69
2021/03/18 02:12:48;;;;;;;10.93;9.83;;;;;;;-2.95;100.00;98641.41;4997245;28;20601;-70
2021/03/18 02:15:16;;;;;;;11.97;10.83;;;;;;;-3.13;100.00;98645.59;4999686;28;20320;-69
2021/03/18 02:17:51;;;;;;;12.10;10.90;;;;;;;-2.86;100.00;98645.38;5004041;28;20209;-69
2021/03/18 02:20:39;;;;;;;10.67;9.67;;;;;;;-3.05;100.00;98640.94;5001607;28;20775;-68
2021/03/18 02:23:40;;;;;;;12.57;10.17;;;;;;;-3.00;100.00;98643.34;5008027;28;20224;-69
2021/03/18 02:26:10;;;;;;;11.67;10.57;;;;;;;-3.29;100.00;98644.53;4992231;28;20577;-69
2021/03/18 02:28:49;;;;;;;11.80;10.60;;;;;;;-3.38;100.00;98643.13;4996858;28;20907;-69
2021/03/18 02:31:26;;;;;;;10.47;9.43;;;;;;;-3.47;100.00;98646.91;5003636;28;20206;-69
2021/03/18 02:34:14;;;;;;;13.90;10.57;;;;;;;-3.48;100.00;98637.47;4996443;28;20232;-69
2021/03/18 02:36:46;;;;;;;12.23;9.50;;;;;;;-3.42;100.00;98642.41;5002507;28;20232;-69
2021/03/18 02:39:17;;;;;;;11.77;10.30;;;;;;;-3.34;100.00;98644.69;4999499;28;20201;-68
2021/03/18 02:41:46;;;;;;;10.70;9.63;;;;;;;-3.35;100.00;98643.88;4993317;28;20208;-68
2021/03/18 02:44:16;;;;;;;11.23;9.97;;;;;;;-3.15;100.00;98650.00;4998981;28;20272;-69
2021/03/18 02:46:43;;;;;;;12.63;9.90;;;;;;;-3.07;100.00;98649.69;4993832;28;20209;-69
2021/03/18 02:49:12;;;;;;;10.60;9.57;;;;;;;-3.07;100.00;98655.72;5006207;28;20197;-69
2021/03/18 02:51:42;;;;;;;15.40;10.30;;;;;;;-3.05;100.00;98656.50;4996650;28;20561;-69
2021/03/18 02:54:11;;;;;;;11.63;10.43;;;;;;;-2.82;100.00;98646.94;5003502;28;20554;-68
2021/03/18 02:56:40;;;;;;;11.30;9.77;;;;;;;-2.68;100.00;98651.56;5001160;28;20213;-69
2021/03/18 02:59:10;;;;;;;13.13;11.07;;;;;;;-2.54;100.00;98655.31;4999812;28;20239;-69
2021/03/18 03:01:40;;;;;;;11.07;9.97;;;;;;;-2.47;100.00;98657.59;5003262;28;20635;-69
2021/03/18 03:04:08;;;;;;;11.10;9.87;;;;;;;-2.48;100.00;98649.84;5001578;28;20243;-69
2021/03/18 03:06:36;;;;;;;10.93;9.57;;;;;;;-2.58;100.00;98643.38;5003843;28;20207;-70
2021/03/18 03:09:05;;;;;;;13.93;10.47;;;;;;;-2.65;100.00;98648.81;4997464;28;20208;-69
2021/03/18 03:11:33;;;;;;;11.47;9.67;;;;;;;-2.60;100.00;98646.06;4997984;28;20219;-69
2021/03/18 03:14:01;;;;;;;14.40;10.33;;;;;;;-2.68;100.00;98651.56;4996306;28;20494;-69
2021/03/18 03:16:28;;;;;;;10.70;9.70;;;;;;;-2.73;100.00;98648.31;4998310;28;20229;-68
2021/03/18 03:18:56;;;;;;;12.60;9.73;;;;;;;-2.70;100.00;98643.00;5003388;28;20727;-69
2021/03/18 03:21:24;;;;;;;11.63;9.93;;;;;;;-2.86;100.00;98636.75;4990332;28;20479;-69
2021/03/18 03:23:51;;;;;;;13.17;10.00;;;;;;;-3.09;100.00;98630.75;5010613;28;20232;-69
2021/03/18 03:26:21;;;;;;;12.53;11.37;;;;;;;-3.08;100.00;98632.44;5001653;28;20207;-69
2021/03/18 03:28:50;;;;;;;11.23;10.17;;;;;;;-3.25;100.00;98639.13;5001828;28;20214;-70
2021/03/18 03:31:17;;;;;;;12.20;11.07;;;;;;;-3.39;100.00;98633.66;5006093;28;20659;-69
2021/03/18 03:34:00;;;;;;;12.03;10.80;;;;;;;-3.51;100.00;98635.84;4997543;28;20265;-67
2021/03/18 03:36:27;;;;;;;9.30;8.43;;;;;;;-3.60;100.00;98633.59;5006809;28;20204;-70
2021/03/18 03:38:54;;;;;;;10.30;9.33;;;;;;;-3.66;100.00;98639.00;5002446;28;20676;-69
2021/03/18 03:41:21;;;;;;;13.77;10.60;;;;;;;-3.74;100.00;98628.97;5009735;28;20371;-67
2021/03/18 03:43:49;;;;;;;11.93;10.73;;;;;;;-3.76;100.00;98637.69;5000066;28;20227;-70
2021/03/18 03:46:16;;;;;;;12.30;11.10;;;;;;;-3.84;100.00;98638.81;5005179;28;20721;-69
2021/03/18 03:48:44;;;;;;;11.57;10.37;;;;;;;-3.93;100.00;98639.16;5002446;28;20209;-69
2021/03/18 03:51:11;;;;;;;11.83;10.73;;;;;;;-3.89;100.00;98643.34;5002139;28;20204;-68
2021/03/18 03:53:42;;;;;;;10.63;9.57;;;;;;;-3.95;100.00;98644.41;5004385;28;20562;-69
2021/03/18 03:56:18;;;;;;;11.67;10.33;;;;;;;-3.87;100.00;98651.03;5004358;28;20205;-69
2021/03/18 03:58:47;;;;;;;10.90;9.90;;;;;;;-3.93;100.00;98647.78;5006925;28;20215;-69
2021/03/18 04:01:23;;;;;;;11.73;10.57;;;;;;;-3.96;100.00;98645.28;4999720;28;20209;-68
2021/03/18 04:03:53;;;;;;;10.43;9.40;;;;;;;-3.97;100.00;98641.00;5002899;28;20228;-69
2021/03/18 04:06:22;;;;;;;14.00;10.50;;;;;;;-3.93;100.00;98646.94;5005122;28;20200;-69
2021/03/18 04:08:50;;;;;;;11.27;9.77;;;;;;;-3.87;100.00;98654.47;4998265;28;20297;-69
2021/03/18 04:11:19;;;;;;;11.97;10.20;;;;;;;-3.79;100.00;98651.56;5008830;28;20213;-68
2021/03/18 04:13:47;;;;;;;13.13;10.87;;;;;;;-3.71;100.00;98651.31;4994859;28;20244;-69
2021/03/18 04:16:15;;;;;;;12.17;10.70;;;;;;;-3.69;100.00;98654.69;5003871;28;20203;-68
2021/03/18 04:18:44;;;;;;;12.27;10.97;;;;;;;-3.55;100.00;98649.84;4996874;28;20327;-68
2021/03/18 04:21:12;;;;;;;12.73;10.87;;;;;;;-3.12;100.00;98649.88;4992509;28;20217;-67
2021/03/18 04:23:41;;;;;;;16.97;11.37;;;;;;;-3.25;100.00;98646.91;5002642;28;20319;-69
2021/03/18 04:26:08;;;;;;;12.73;10.47;;;;;;;-3.12;100.00;98651.63;5002351;28;20686;-69
2021/03/18 04:28:35;;;;;;;11.07;9.90;;;;;;;-3.21;100.00;98642.47;5000897;28;20243;-68
2021/03/18 04:31:03;;;;;;;10.93;9.77;;;;;;;-3.18;100.00;98649.28;4993988;28;20218;-68
2021/03/18 04:33:31;;;;;;;12.57;10.90;;;;;;;-3.10;100.00;98647.22;5003483;28;20746;-68
2021/03/18 04:35:59;;;;;;;10.20;9.20;;;;;;;-3.12;100.00;98654.22;5002219;28;20419;-68
2021/03/18 04:38:27;;;;;;;10.60;9.33;;;;;;;-3.20;100.00;98642.41;5005735;28;20698;-69
2021/03/18 04:40:56;;;;;;;11.00;9.90;;;;;;;-3.21;100.00;98642.47;5001276;28;20205;-69
2021/03/18 04:43:23;;;;;;;13.30;10.47;;;;;;;-3.26;100.00;98641.81;5000313;28;20640;-67
2021/03/18 04:45:51;;;;;;;10.17;9.27;;;;;;;-3.26;100.00;98650.41;5003525;28;20202;-68
2021/03/18 04:48:19;;;;;;;11.63;10.53;;;;;;;-3.22;100.00;98641.63;4992271;28;20205;-68
2021/03/18 04:50:47;;;;;;;13.63;9.97;;;;;;;-3.25;100.00;98646.91;5000345;28;20733;-69
2021/03/18 04:53:19;;;;;;;12.63;10.77;;;;;;;-3.32;100.00;98648.06;4981841;28;20503;-68
2021/03/18 04:55:46;;;;;;;11.50;10.00;;;;;;;-3.29;100.00;98636.75;4989599;28;20232;-68
2021/03/18 04:58:15;;;;;;;11.57;10.40;;;;;;;-3.28;100.00;98633.25;5002385;28;20205;-69
2021/03/18 05:00:42;;;;;;;11.03;9.87;;;;;;;-3.26;100.00;98637.47;5002080;28;20209;-67
2021/03/18 05:03:10;;;;;;;13.80;10.60;;;;;;;-3.18;100.00;98625.97;5006071;28;20229;-68
2021/03/18 05:05:37;;;;;;;11.50;9.10;;;;;;;-3.17;100.00;98623.28;5000514;28;20236;-71
2021/03/18 05:08:05;;;;;;;10.67;9.57;;;;;;;-3.11;100.00;98622.22;4997229;28;20197;-70
2021/03/18 05:10:40;;;;;;;11.67;10.57;;;;;;;-2.89;100.00;98631.69;5001112;28;20244;-70
2021/03/18 05:13:09;;;;;;;13.50;11.70;;;;;;;-2.87;100.00;98629.88;4997660;28;20233;-69
2021/03/18 05:15:37;;;;;;;11.27;10.17;;;;;;;-2.86;100.00;98628.97;5002470;28;20239;-70
2021/03/18 05:18:08;;;;;;;11.37;9.50;;;;;;;-2.88;100.00;98630.78;4994603;28;20205;-69
2021/03/18 05:20:35;;;;;;;13.60;11.20;;;;;;;-2.82;100.00;98633.13;4994455;28;20213;-70
2021/03/18 05:23:03;;;;;;;11.37;10.27;;;;;;;-2.76;100.00;98627.69;4997639;28;20209;-69
2021/03/18 05:25:31;;;;;;;10.90;9.67;;;;;;;-2.70;100.00;98637.81;5004416;28;20212;-70
2021/03/18 05:27:59;;;;;;;10.67;9.20;;;;;;;-2.59;100.00;98631.31;4997128;28;20205;-70
2021/03/18 05:30:28;;;;;;;10.80;9.73;;;;;;;-2.52;100.00;98635.31;5002252;28;20204;-69
2021/03/18 05:32:55;;;;;;;11.33;10.20;;;;;;;-2.63;100.00;98628.84;5000030;28;20205;-70
2021/03/18 05:35:35;;;;;;;11.17;9.80;;;;;;;-2.52;100.00;98636.19;5001779;28;20896;-69
2021/03/18 05:38:04;;;;;;;10.90;9.70;;;;;;;-2.62;100.00;98638.31;5002009;28;20716;-69
2021/03/18 05:40:31;;;;;;;12.67;11.30;;;;;;;-2.63;100.00;98634.03;4997999;28;20437;-68
2021/03/18 05:43:00;;;;;;;11.63;10.53;;;;;;;-2.54;100.00;98635.41;4997054;28;20209;-70
2021/03/18 05:45:27;;;;;;;11.13;10.13;;;;;;;-2.50;100.00;98636.09;4995457;28;20204;-71
2021/03/18 05:47:55;;;;;;;11.20;10.20;;;;;;;-2.51;100.00;98631.81;4994386;28;20210;-70
2021/03/18 05:50:23;;;;;;;13.70;12.33;;;;;;;-2.51;100.00;98635.28;5002961;28;20631;-68
2021/03/18 05:52:51;;;;;;;13.87;11.60;;;;;;;-2.52;100.00;98627.53;4995711;28;20648;-69
2021/03/18 05:55:20;;;;;;;13.10;11.77;;;;;;;-2.58;100.00;98627.81;5000295;28;20852;-69
2021/03/18 05:57:49;;;;;;;13.97;12.47;;;;;;;-2.62;100.00;98630.53;5001373;28;20302;-69
2021/03/18 06:00:19;;;;;;;13.23;9.87;;;;;;;-2.63;100.00;98628.84;4999339;28;20213;-68
2021/03/18 06:02:49;;;;;;;12.13;10.90;;;;;;;-2.56;100.00;98625.97;4999515;28;20216;-70
2021/03/18 06:05:17;;;;;;;11.77;10.53;;;;;;;-2.53;100.00;98623.25;5001076;28;20543;-70
2021/03/18 06:07:46;;;;;;;11.17;10.17;;;;;;;-2.44;100.00;98624.63;5001381;28;20209;-70
2021/03/18 06:10:15;;;;;;;11.57;10.37;;;;;;;-2.36;100.00;98625.97;5000799;28;20689;-70
2021/03/18 06:12:42;;;;;;;11.57;10.37;;;;;;;-2.34;100.00;98629.34;4993415;28;20217;-69
2021/03/18 06:15:12;;;;;;;12.10;10.17;;;;;;;-2.24;100.00;98623.75;4997624;28;20228;-69
2021/03/18 06:17:41;;;;;;;11.50;10.40;;;;;;;-2.23;100.00;98628.03;4999196;28;20693;-70
2021/03/18 06:20:11;;;;;;;12.27;11.00;;;;;;;-2.18;100.00;98636.47;4991567;28;20666;-69
2021/03/18 06:22:40;;;;;;;11.57;10.37;;;;;;;-2.06;100.00;98628.13;5001281;28;20208;-70
2021/03/18 06:25:20;;;;;;;13.37;11.47;;;;;;;-1.97;100.00;98628.63;4999571;28;20735;-69
2021/03/18 06:27:47;;;;;;;11.30;10.13;;;;;;;-1.77;100.00;98638.13;4994880;28;20201;-70
2021/03/18 06:30:15;;;;;;;13.00;11.60;;;;;;;-1.64;100.00;98633.19;5001079;28;20201;-70
2021/03/18 06:32:44;;;;;;;12.60;11.13;;;;;;;-1.39;100.00;98632.88;5002024;28;20213;-70
2021/03/18 06:35:29;;;;;;;12.10;10.90;;;;;;;-1.28;100.00;98637.59;4998391;28;20212;-67
2021/03/18 06:37:56;;;;;;;11.63;10.50;;;;;;;-1.08;100.00;98623.63;4998079;28;20216;-69
2021/03/18 06:40:24;;;;;;;12.17;10.50;;;;;;;-1.06;100.00;98621.78;5003343;28;20216;-68
2021/03/18 06:42:57;;;;;;;11.47;10.40;;;;;;;-1.06;100.00;98631.31;4997179;28;20193;-69
2021/03/18 06:45:29;;;;;;;11.37;10.10;;;;;;;-1.06;100.00;98621.78;4997075;28;20211;-67
2021/03/18 06:48:00;;;;;;;12.50;11.27;;;;;;;-1.20;100.00;98624.19;4999332;28;20212;-70
2021/03/18 06:50:32;;;;;;;11.07;10.07;;;;;;;-1.20;100.00;98625.03;5000968;28;20208;-69
2021/03/18 06:52:59;;;;;;;11.73;10.53;;;;;;;-0.77;99.61;98631.66;4996509;28;20473;-70
2021/03/18 06:55:28;;;;;;;10.70;9.70;;;;;;;-0.54;97.57;98637.47;4998552;28;20227;-69
2021/03/18 06:58:18;;;;;;;12.07;10.33;;;;;;;-0.62;97.01;98640.47;5002020;28;20201;-67
2021/03/18 07:00:48;;;;;;;11.57;10.47;;;;;;;-0.59;97.91;98635.91;5000376;28;20209;-69
2021/03/18 07:03:27;;;;;;;13.13;10.30;;;;;;;-0.46;96.92;98638.75;5006992;28;20232;-69
2021/03/18 07:05:54;;;;;;;19.97;14.60;;;;;;;-0.30;94.71;98638.81;5000941;28;20292;-67
2021/03/18 07:08:27;;;;;;;11.17;10.00;;;;;;;-0.11;93.66;98637.00;5006783;28;20200;-68
2021/03/18 07:10:54;;;;;;;37.03;21.83;;;;;;;-0.28;93.31;98640.50;5002362;28;20206;-66
2021/03/18 07:13:25;;;;;;;13.60;10.63;;;;;;;-0.05;93.19;98632.31;5003677;28;20235;-68
2021/03/18 07:15:54;;;;;;;14.30;10.63;;;;;;;-0.11;94.02;98635.25;5000649;28;20229;-68
2021/03/18 07:18:22;;;;;;;11.63;10.43;;;;;;;-0.19;94.58;98640.00;5005754;28;20587;-70
2021/03/18 07:20:59;;;;;;;9.87;8.87;;;;;;;0.07;92.18;98640.41;5007945;28;20205;-69
2021/03/18 07:23:33;;;;;;;51.70;31.47;;;;;;;-0.19;93.30;98640.84;5006158;28;20699;-69
2021/03/18 07:26:01;;;;;;;33.23;29.87;;;;;;;0.02;94.32;98632.84;5003471;28;20518;-68
2021/03/18 07:28:28;;;;;;;12.33;10.60;;;;;;;-0.13;93.34;98636.25;5010726;28;20215;-69
2021/03/18 07:30:56;;;;;;;12.23;11.03;;;;;;;-0.07;93.72;98636.78;5006141;28;20196;-68
2021/03/18 07:33:23;;;;;;;11.50;10.53;;;;;;;0.39;91.14;98633.47;5009671;28;20231;-69
2021/03/18 07:35:53;;;;;;;15.30;12.63;;;;;;;0.32;90.79;98636.50;5006584;28;20229;-66
2021/03/18 07:38:21;;;;;;;15.63;12.93;;;;;;;0.27;91.21;98631.50;5001787;28;20204;-69
2021/03/18 07:40:48;;;;;;;10.17;9.17;;;;;;;0.56;88.96;98622.09;5000149;28;20240;-70
2021/03/18 07:43:15;;;;;;;18.13;11.93;;;;;;;0.31;90.30;98622.59;5001847;28;20229;-70
2021/03/18 07:45:43;;;;;;;110.47;58.17;;;;;;;0.51;90.26;98618.88;4998102;28;20201;-67
2021/03/18 07:48:14;;;;;;;21.07;16.83;;;;;;;0.46;89.71;98620.09;4996611;28;20201;-70
2021/03/18 07:50:41;;;;;;;18.27;12.80;;;;;;;0.48;89.79;98615.63;4997207;28;20499;-69
2021/03/18 07:53:09;;;;;;;19.33;15.67;;;;;;;0.64;89.37;98611.22;5004563;28;20713;-70
2021/03/18 07:55:38;;;;;;;19.73;16.27;;;;;;;0.63;89.22;98624.38;5003570;28;20227;-72
2021/03/18 07:58:05;;;;;;;23.10;16.50;;;;;;;0.71;89.03;98612.56;5010436;28;20207;-67
2021/03/18 08:00:33;;;;;;;58.43;36.30;;;;;;;0.83;87.55;98611.03;5006475;28;20208;-70
2021/03/18 08:03:26;;;;;;;13.80;10.73;;;;;;;1.04;87.81;98613.34;4997846;28;20205;-67
2021/03/18 08:05:54;;;;;;;9.83;8.83;;;;;;;1.03;88.26;98616.03;5001852;28;20250;-70
2021/03/18 08:08:45;;;;;;;9.93;8.63;;;;;;;1.28;86.37;98610.22;5007065;28;20661;-70
2021/03/18 08:11:15;;;;;;;22.23;17.67;;;;;;;1.24;86.36;98612.19;4992222;28;20209;-70
2021/03/18 08:13:44;;;;;;;10.97;9.40;;;;;;;1.38;85.39;98610.53;4995206;28;20259;-70
2021/03/18 08:16:29;;;;;;;15.90;12.80;;;;;;;1.51;83.83;98616.72;5002474;28;20232;-70
2021/03/18 08:18:59;;;;;;;10.13;9.23;;;;;;;1.79;83.54;98611.63;5003465;28;20772;-70
2021/03/18 08:21:35;;;;;;;12.97;8.90;;;;;;;1.92;81.44;98609.09;4990766;28;20197;-69
2021/03/18 08:24:04;;;;;;;9.83;8.83;;;;;;;2.10;79.76;98613.19;5004562;28;20220;-69
2021/03/18 08:26:37;;;;;;;11.23;9.47;;;;;;;2.42;77.51;98607.72;5000819;28;20196;-68
2021/03/18 08:29:07;;;;;;;9.80;8.90;;;;;;;2.26;77.61;98604.38;4995545;28;20622;-69
2021/03/18 08:31:46;;;;;;;9.00;8.10;;;;;;;2.16;78.76;98611.97;4999936;28;20209;-67
2021/03/18 08:34:14;;;;;;;7.97;7.27;;;;;;;1.84;77.76;98605.16;5003205;28;20237;-71
2021/03/18 08:36:54;;;;;;;9.30;8.27;;;;;;;1.61;79.15;98611.78;5002269;28;20306;-69
2021/03/18 08:39:39;;;;;;;7.57;6.87;;;;;;;1.53;80.59;98607.03;5002303;28;20365;-69
2021/03/18 08:42:35;;;;;;;11.77;10.57;;;;;;;1.44;79.87;98612.78;4997660;28;20208;-69
2021/03/18 08:45:07;;;;;;;9.63;8.60;;;;;;;1.13;82.26;98612.81;5003140;28;20574;-69
2021/03/18 08:47:40;;;;;;;8.57;7.67;;;;;;;1.19;82.91;98602.94;4996861;28;20293;-70
2021/03/18 08:50:11;;;;;;;9.33;8.40;;;;;;;1.62;81.32;98610.84;5002973;28;20205;-70
2021/03/18 08:52:41;;;;;;;8.77;7.87;;;;;;;1.79;80.46;98609.00;4997765;28;20205;-70
2021/03/18 08:55:10;;;;;;;11.17;8.87;;;;;;;1.83;79.91;98613.94;4995704;28;20265;-68
2021/03/18 08:57:41;;;;;;;9.40;8.40;;;;;;;1.91;79.23;98607.44;5004370;28;20276;-70
2021/03/18 09:00:25;;;;;;;8.63;7.83;;;;;;;2.08;77.94;98603.75;4997803;28;20200;-67
2021/03/18 09:02:52;;;;;;;9.73;8.73;;;;;;;2.01;78.46;98604.13;5002944;28;20204;-68
2021/03/18 09:05:21;;;;;;;11.07;9.03;;;;;;;1.95;78.14;98609.75;4998021;28;20695;-68
2021/03/18 09:07:52;;;;;;;10.07;8.97;;;;;;;1.89;78.47;98599.66;4993021;28;20232;-69
2021/03/18 09:10:21;;;;;;;10.40;8.00;;;;;;;1.84;79.39;98597.31;4998880;28;20361;-69
2021/03/18 09:12:52;;;;;;;9.00;7.47;;;;;;;2.01;77.43;98592.84;4998109;28;20611;-70
2021/03/18 09:15:25;;;;;;;8.87;8.07;;;;;;;1.88;77.65;98595.38;4994937;28;20441;-70
2021/03/18 09:17:54;;;;;;;9.37;8.47;;;;;;;1.96;79.57;98594.91;5001456;28;20216;-69
2021/03/18 09:20:25;;;;;;;9.40;8.40;;;;;;;2.20;77.62;98589.91;5001028;28;20295;-69
2021/03/18 09:22:53;;;;;;;9.23;8.40;;;;;;;2.66;74.95;98580.06;4998074;28;20212;-68
2021/03/18 09:25:26;;;;;;;8.60;7.67;;;;;;;2.83;73.55;98584.22;5000117;28;20201;-68
2021/03/18 09:27:54;;;;;;;7.93;7.13;;;;;;;2.89;72.48;98576.81;4996228;28;20731;-67
2021/03/18 09:30:30;;;;;;;8.87;7.97;;;;;;;2.79;71.52;98574.88;4992381;28;20208;-70
2021/03/18 09:33:02;;;;;;;8.00;7.30;;;;;;;3.41;68.14;98576.88;4998022;28;20201;-68
2021/03/18 09:35:29;;;;;;;7.20;6.60;;;;;;;3.65;66.92;98568.28;4995697;28;20232;-70
2021/03/18 09:37:58;;;;;;;7.83;7.13;;;;;;;3.79;66.53;98567.34;4998389;28;20232;-71
2021/03/18 09:40:35;;;;;;;6.97;6.30;;;;;;;3.96;64.08;98567.94;5000820;28;20211;-68
2021/03/18 09:43:04;;;;;;;6.27;5.77;;;;;;;3.78;59.50;98567.44;4992749;28;20285;-70
2021/03/18 09:45:31;;;;;;;7.17;6.47;;;;;;;3.35;60.25;98568.59;4991453;28;20220;-68
2021/03/18 09:47:59;;;;;;;6.20;5.70;;;;;;;3.35;60.33;98558.97;4993313;28;20262;-69
2021/03/18 09:50:28;;;;;;;6.10;5.50;;;;;;;3.72;59.22;98561.66;4992494;28;20636;-70
2021/03/18 09:53:06;;;;;;;5.53;5.13;;;;;;;3.77;59.56;98556.09;4993731;28;20781;-69
2021/03/18 09:55:33;;;;;;;5.40;4.93;;;;;;;4.13;56.88;98558.88;4996117;28;20740;-68
2021/03/18 09:58:10;;;;;;;4.40;4.03;;;;;;;4.16;54.56;98556.03;5000614;28;20216;-69
2021/03/18 10:00:37;;;;;;;4.57;4.27;;;;;;;4.18;53.57;98548.88;4995831;28;20217;-70
2021/03/18 10:03:05;;;;;;;4.27;3.97;;;;;;;4.11;55.07;98548.47;4999835;28;20407;-68
2021/03/18 10:05:33;;;;;;;5.07;4.20;;;;;;;3.88;53.11;98558.81;4998388;28;20197;-70
2021/03/18 10:08:01;;;;;;;5.40;4.90;;;;;;;3.86;53.82;98546.75;4995880;28;20313;-70
2021/03/18 10:10:29;;;;;;;4.63;4.33;;;;;;;3.94;55.63;98549.66;4994447;28;20215;-69
2021/03/18 10:13:00;;;;;;;5.20;4.73;;;;;;;4.45;54.09;98543.44;4990957;28;20217;-67
2021/03/18 10:15:28;;;;;;;5.40;5.00;;;;;;;4.38;54.96;98528.25;5000126;28;20228;-68
2021/03/18 10:17:56;;;;;;;4.90;4.60;;;;;;;4.78;52.12;98531.41;4994619;28;20632;-68
2021/03/18 10:20:25;;;;;;;6.00;5.60;;;;;;;4.35;52.88;98530.13;4997302;28;20607;-69
2021/03/18 10:23:01;;;;;;;5.73;5.13;;;;;;;4.71;53.72;98529.34;4993085;28;20209;-68
2021/03/18 10:25:29;;;;;;;6.13;5.63;;;;;;;4.69;53.37;98526.84;4984477;28;20201;-69
2021/03/18 10:28:04;;;;;;;5.30;4.93;;;;;;;5.13;52.36;98518.38;5002945;28;20680;-70
2021/03/18 10:30:33;;;;;;;5.40;5.00;;;;;;;5.25;51.48;98521.84;4990407;28;20639;-69
2021/03/18 10:33:06;;;;;;;4.83;4.43;;;;;;;4.66;52.17;98511.31;4987417;28;20206;-66
2021/03/18 10:35:35;;;;;;;5.00;4.60;;;;;;;4.56;52.48;98516.41;4992805;28;20771;-69
2021/03/18 10:38:03;;;;;;;6.17;5.03;;;;;;;4.18;54.87;98512.16;4992163;28;20206;-67
2021/03/18 10:40:31;;;;;;;6.30;5.80;;;;;;;4.02;56.01;98513.25;4991508;28;20209;-68
2021/03/18 10:42:59;;;;;;;9.43;8.73;;;;;;;3.73;56.03;98503.06;4992523;28;20673;-68
2021/03/18 10:45:29;;;;;;;6.57;5.97;;;;;;;4.05;54.67;98504.31;4999587;28;20418;-67
2021/03/18 10:48:00;;;;;;;5.67;5.27;;;;;;;3.98;54.19;98503.09;4996562;28;20552;-68
2021/03/18 10:50:30;;;;;;;5.10;4.70;;;;;;;4.67;54.14;98499.00;4995027;28;20374;-70
2021/03/18 10:53:00;;;;;;;5.53;4.97;;;;;;;4.97;54.24;98495.03;4996753;28;20209;-69
2021/03/18 10:55:32;;;;;;;4.97;4.47;;;;;;;5.29;50.60;98497.84;4995832;28;20227;-70
2021/03/18 10:58:01;;;;;;;5.40;5.00;;;;;;;5.10;49.99;98493.16;4992241;28;20206;-68
2021/03/18 11:00:30;;;;;;;4.73;4.37;;;;;;;5.06;49.43;98491.72;4990822;28;20210;-68
2021/03/18 11:03:00;;;;;;;5.07;4.70;;;;;;;4.85;49.24;98494.16;4995532;28;20605;-71
2021/03/18 11:05:32;;;;;;;5.50;4.93;;;;;;;4.62;51.09;98496.75;5000380;28;20916;-70
2021/03/18 11:08:01;;;;;;;4.87;4.57;;;;;;;4.44;52.31;98488.44;4996523;28;20666;-66
2021/03/18 11:10:34;;;;;;;5.30;4.90;;;;;;;4.10;55.90;98489.09;4999682;28;20205;-69
2021/03/18 11:13:05;;;;;;;5.40;5.00;;;;;;;3.96;57.89;98486.63;4999822;28;20221;-70
2021/03/18 11:15:44;;;;;;;5.37;4.87;;;;;;;3.58;59.15;98496.25;4992984;28;20224;-69
2021/03/18 11:18:13;;;;;;;5.77;5.37;;;;;;;3.65;59.03;98492.28;5004696;28;20229;-67
2021/03/18 11:20:42;;;;;;;5.57;5.17;;;;;;;3.67;59.25;98493.00;5000258;28;20576;-69
2021/03/18 11:23:11;;;;;;;5.30;4.80;;;;;;;3.84;58.32;98489.19;4999044;28;20733;-67
2021/03/18 11:25:38;;;;;;;5.60;5.10;;;;;;;3.51;57.79;98489.75;4992430;28;20566;-68
2021/03/18 11:28:06;;;;;;;5.27;4.87;;;;;;;3.55;58.79;98483.34;4985643;28;20592;-68
2021/03/18 11:30:34;;;;;;;5.47;4.97;;;;;;;3.68;58.79;98486.81;4995259;28;20215;-69
2021/03/18 11:33:17;;;;;;;7.67;5.17;;;;;;;3.62;57.50;98474.97;4997910;28;20225;-67
2021/03/18 11:35:46;;;;;;;5.10;4.70;;;;;;;3.76;57.87;98475.75;4989772;28;20306;-68